LGKV/KVA METAR and TAF weather

Enter ICAO airport designator
Station Type Date Time Source
LGKV METAR 2020/01/24 02:50 UTC NOAA

LGKV 240250Z 05006KT CAVOK M00/M04 Q1033


Station Type Date Time Source
LGKV Decoded METAR 2020/01/24 02:50 UTC NOAA

Chrysoupoli Airport , Greece (LGKV) 40-59N 024-36E 5M
Jan 23, 2020 - 09:50 PM EST / 2020.01.24 0250 UTC
Wind: from the NE (050 degrees) at 7 MPH (6 KT):0
Visibility: greater than 7 mile(s):0
Temperature: 32 F (0 C)
Windchill: 24 F (-4 C):1
Dew Point: 24 F (-4 C)
Relative Humidity: 74%
Pressure (altimeter): 30.50 in. Hg (1033 hPa)
ob: LGKV 240250Z 05006KT CAVOK M00/M04 Q1033
cycle: 3

Station Type Date Time Source
LGKV TAF 2020/01/23 18:15 UTC NOAA

TAF LGKV 231700Z 2318/2418 06010KT 9999 FEW025
BECMG 2318/2320 VRB03KT

Example: see airport list